createdAt,value
2019-01-26T00:01:40.011Z,8.70
2019-01-26T00:06:47.458Z,9.83
2019-01-26T00:11:59.723Z,10.20
2019-01-26T00:17:12.612Z,8.97
2019-01-26T00:22:21.765Z,10.00
2019-01-26T00:27:28.450Z,10.43
2019-01-26T00:32:38.635Z,8.67
2019-01-26T00:37:48.734Z,9.90
2019-01-26T00:42:56.623Z,10.53
2019-01-26T00:48:04.396Z,9.70
2019-01-26T00:53:15.081Z,9.40
2019-01-26T00:58:25.627Z,9.37
2019-01-26T01:03:33.459Z,9.97
2019-01-26T01:08:43.482Z,7.77
2019-01-26T01:13:50.682Z,8.20
2019-01-26T01:19:03.234Z,9.73
2019-01-26T01:24:12.431Z,7.03
2019-01-26T01:29:21.855Z,7.43
2019-01-26T01:34:31.837Z,5.37
2019-01-26T01:39:42.143Z,5.83
2019-01-26T01:44:49.942Z,5.87
2019-01-26T01:49:57.175Z,5.70
2019-01-26T01:55:04.571Z,7.47
2019-01-26T02:00:21.183Z,7.13
2019-01-26T02:05:29.048Z,9.13
2019-01-26T02:10:38.251Z,8.47
2019-01-26T02:15:48.182Z,25.93
2019-01-26T02:20:58.564Z,6.63
2019-01-26T02:26:07.975Z,7.13
2019-01-26T02:31:17.899Z,6.07
2019-01-26T02:36:27.786Z,6.77
2019-01-26T02:41:37.470Z,6.63
2019-01-26T02:46:45.095Z,5.40
2019-01-26T02:51:52.501Z,6.80
2019-01-26T02:56:58.665Z,5.53
2019-01-26T03:02:05.731Z,8.43
2019-01-26T03:07:13.525Z,7.37
2019-01-26T03:12:19.783Z,9.30
2019-01-26T03:17:27.550Z,7.60
2019-01-26T03:22:34.067Z,8.37
2019-01-26T03:27:43.078Z,7.13
2019-01-26T03:32:49.706Z,4.57
2019-01-26T03:37:56.806Z,4.00
2019-01-26T03:43:04.583Z,4.53
2019-01-26T03:48:10.999Z,2.80
2019-01-26T03:53:18.895Z,4.73
2019-01-26T03:58:33.422Z,3.67
2019-01-26T04:03:43.459Z,3.30
2019-01-26T04:08:50.378Z,4.20
2019-01-26T04:13:57.127Z,4.23
2019-01-26T04:19:07.430Z,6.27
2019-01-26T04:24:14.798Z,3.60
2019-01-26T04:29:22.534Z,3.57
2019-01-26T04:34:29.383Z,3.97
2019-01-26T04:39:38.583Z,3.77
2019-01-26T04:44:44.848Z,5.30
2019-01-26T04:49:52.579Z,6.43
2019-01-26T04:54:59.796Z,7.67
2019-01-26T05:00:11.345Z,4.60
2019-01-26T05:05:17.965Z,3.90
2019-01-26T05:10:24.944Z,6.20
2019-01-26T05:15:33.108Z,5.60
2019-01-26T05:20:41.651Z,6.73
2019-01-26T05:25:48.947Z,4.77
2019-01-26T05:30:55.167Z,5.77
2019-01-26T05:36:03.057Z,6.77
2019-01-26T05:41:10.435Z,6.83
2019-01-26T05:46:16.591Z,6.57
2019-01-26T05:51:24.356Z,9.37
2019-01-26T05:56:30.988Z,4.33
2019-01-26T06:01:38.225Z,4.60
2019-01-26T06:06:47.229Z,5.13
2019-01-26T06:11:53.987Z,11.03
2019-01-26T06:17:00.031Z,5.17
2019-01-26T06:22:08.070Z,4.37
2019-01-26T06:27:14.440Z,5.33
2019-01-26T06:32:22.370Z,3.43
2019-01-26T06:37:30.151Z,4.63
2019-01-26T06:42:36.059Z,4.53
2019-01-26T06:47:46.034Z,5.43
2019-01-26T06:52:54.003Z,5.67
2019-01-26T06:58:01.774Z,5.77
2019-01-26T07:03:08.240Z,5.37
2019-01-26T07:08:21.159Z,8.57
2019-01-26T07:13:28.344Z,6.77
2019-01-26T07:18:36.311Z,6.87
2019-01-26T07:23:44.214Z,6.67
2019-01-26T07:28:51.919Z,4.40
2019-01-26T07:34:02.255Z,7.63
2019-01-26T07:39:12.893Z,4.70
2019-01-26T07:44:21.738Z,7.07
2019-01-26T07:49:30.454Z,3.57
2019-01-26T07:54:37.113Z,4.73
2019-01-26T07:59:44.391Z,4.33
2019-01-26T08:04:52.363Z,4.47
2019-01-26T08:10:01.078Z,5.87
2019-01-26T08:15:11.359Z,6.73
2019-01-26T08:20:20.249Z,5.90
2019-01-26T08:25:27.342Z,4.27
2019-01-26T08:30:33.895Z,4.23
2019-01-26T08:35:41.614Z,6.43
2019-01-26T08:40:49.053Z,5.13
2019-01-26T08:45:57.093Z,4.87
2019-01-26T08:51:04.414Z,4.03
2019-01-26T08:56:11.708Z,4.10
2019-01-26T09:01:20.540Z,3.93
2019-01-26T09:06:32.775Z,6.77
2019-01-26T09:11:40.468Z,11.13
2019-01-26T09:16:47.876Z,5.00
2019-01-26T09:21:54.050Z,6.93
2019-01-26T09:27:05.356Z,6.23
2019-01-26T09:32:15.802Z,5.80
2019-01-26T09:37:23.730Z,6.97
2019-01-26T09:42:31.567Z,6.97
2019-01-26T09:47:38.814Z,5.60
2019-01-26T09:52:49.417Z,7.23
2019-01-26T09:57:55.544Z,7.40
2019-01-26T10:03:03.365Z,5.53
2019-01-26T10:08:11.031Z,9.00
2019-01-26T10:13:17.717Z,7.67
2019-01-26T10:18:23.909Z,4.87
2019-01-26T10:23:31.568Z,6.00
2019-01-26T10:28:40.795Z,6.97
2019-01-26T10:33:47.098Z,3.50
2019-01-26T10:38:58.079Z,8.43
2019-01-26T10:44:07.463Z,8.20
2019-01-26T10:49:14.355Z,3.70
2019-01-26T10:54:22.182Z,6.20
2019-01-26T10:59:29.968Z,5.00
2019-01-26T11:04:37.943Z,7.53
2019-01-26T11:09:44.746Z,5.47
2019-01-26T11:14:52.602Z,5.80
2019-01-26T11:20:00.248Z,4.30
2019-01-26T11:25:07.416Z,3.27
2019-01-26T11:30:14.733Z,3.90
2019-01-26T11:35:22.534Z,4.23
2019-01-26T11:40:30.741Z,3.43
2019-01-26T11:45:57.218Z,2.60
2019-01-26T11:51:13.269Z,3.30
2019-01-26T11:56:26.021Z,3.17
2019-01-26T12:02:06.306Z,5.20
2019-01-26T12:07:16.865Z,3.40
2019-01-26T12:12:24.200Z,6.23
2019-01-26T12:17:32.047Z,3.40
2019-01-26T12:22:40.172Z,4.30
2019-01-26T12:27:48.432Z,4.90
2019-01-26T12:32:56.440Z,6.87
2019-01-26T12:38:04.301Z,4.17
2019-01-26T12:43:12.142Z,3.70
2019-01-26T12:48:19.854Z,8.93
2019-01-26T12:53:28.595Z,2.50
2019-01-26T12:58:37.842Z,2.90
2019-01-26T13:03:45.518Z,2.50
2019-01-26T13:08:56.449Z,4.13
2019-01-26T13:14:04.220Z,2.10
2019-01-26T13:19:12.613Z,3.30
2019-01-26T13:24:20.369Z,7.53
2019-01-26T13:29:29.906Z,8.23
2019-01-26T13:34:37.670Z,8.43
2019-01-26T13:39:47.976Z,6.40
2019-01-26T13:44:58.341Z,5.70
2019-01-26T13:50:15.013Z,8.07
2019-01-26T13:55:25.375Z,7.07
2019-01-26T14:00:32.543Z,6.37
2019-01-26T14:05:39.484Z,5.13
2019-01-26T14:10:47.164Z,4.63
2019-01-26T14:15:56.380Z,3.77
2019-01-26T14:21:08.024Z,6.40
2019-01-26T14:26:18.883Z,4.73
2019-01-26T14:31:28.314Z,4.57
2019-01-26T14:36:34.356Z,4.00
2019-01-26T14:41:42.133Z,8.13
2019-01-26T14:46:49.931Z,5.43
2019-01-26T14:51:56.488Z,5.60
2019-01-26T14:57:04.694Z,5.97
2019-01-26T15:02:12.792Z,8.80
2019-01-26T15:07:19.784Z,8.17
2019-01-26T15:12:27.699Z,4.27
2019-01-26T15:17:33.999Z,9.37
2019-01-26T15:22:41.242Z,4.77
2019-01-26T15:27:48.735Z,9.70
2019-01-26T15:32:55.075Z,7.00
2019-01-26T15:38:02.908Z,5.40
2019-01-26T15:43:10.051Z,5.93
2019-01-26T15:48:17.115Z,9.27
2019-01-26T15:53:25.713Z,13.07
2019-01-26T15:58:33.642Z,10.60
2019-01-26T16:03:40.134Z,6.00
2019-01-26T16:08:47.529Z,8.03
2019-01-26T16:13:54.103Z,16.83
2019-01-26T16:19:00.523Z,10.87
2019-01-26T16:24:06.971Z,7.70
2019-01-26T16:29:14.215Z,8.57
2019-01-26T16:34:21.939Z,9.33
2019-01-26T16:39:29.551Z,10.87
2019-01-26T16:44:38.686Z,11.27
2019-01-26T16:49:44.723Z,17.83
2019-01-26T16:54:52.411Z,16.63
2019-01-26T16:59:58.506Z,12.87
2019-01-26T17:05:05.806Z,17.67
2019-01-26T17:10:15.609Z,14.20
2019-01-26T17:15:23.554Z,17.53
2019-01-26T17:20:35.138Z,14.70
2019-01-26T17:25:41.262Z,21.73
2019-01-26T17:30:47.754Z,15.20
2019-01-26T17:35:55.118Z,20.40
2019-01-26T17:41:03.178Z,19.23
2019-01-26T17:46:10.110Z,24.07
2019-01-26T17:51:17.478Z,23.03
2019-01-26T17:56:23.827Z,18.90
2019-01-26T18:01:31.252Z,19.03
2019-01-26T18:06:40.593Z,24.90
2019-01-26T18:11:47.814Z,34.70
2019-01-26T18:16:59.247Z,19.53
2019-01-26T18:22:07.517Z,22.23
2019-01-26T18:27:14.603Z,22.73
2019-01-26T18:32:22.794Z,21.83
2019-01-26T18:37:31.287Z,22.57
2019-01-26T18:42:40.176Z,18.27
2019-01-26T18:47:47.038Z,34.47
2019-01-26T18:52:54.609Z,30.03
2019-01-26T18:58:01.214Z,20.93
2019-01-26T19:04:07.776Z,24.23
2019-01-26T19:09:15.581Z,23.93
2019-01-26T19:14:23.389Z,25.57
2019-01-26T19:19:30.935Z,25.83
2019-01-26T19:24:38.763Z,27.17
2019-01-26T19:29:46.066Z,18.63
2019-01-26T19:34:53.525Z,24.30
2019-01-26T19:40:01.386Z,23.50
2019-01-26T19:45:10.289Z,19.80
2019-01-26T19:50:21.591Z,20.27
2019-01-26T19:55:28.886Z,27.20
2019-01-26T20:00:37.290Z,23.90
2019-01-26T20:05:48.016Z,16.93
2019-01-26T20:10:58.427Z,22.73
2019-01-26T20:16:06.912Z,13.70
2019-01-26T20:21:17.733Z,19.13
2019-01-26T20:26:27.764Z,18.63
2019-01-26T20:31:34.264Z,18.00
2019-01-26T20:36:44.010Z,23.73
2019-01-26T20:41:55.282Z,16.77
2019-01-26T20:47:03.092Z,26.43
2019-01-26T20:52:12.642Z,34.33
2019-01-26T20:57:22.984Z,24.80
2019-01-26T21:02:33.300Z,26.60
2019-01-26T21:07:44.187Z,24.53
2019-01-26T21:12:52.938Z,20.87
2019-01-26T21:18:01.061Z,22.27
2019-01-26T21:23:11.030Z,20.57
2019-01-26T21:28:19.937Z,22.10
2019-01-26T21:33:27.238Z,25.43
2019-01-26T21:38:35.260Z,18.13
2019-01-26T21:43:45.398Z,18.43
2019-01-26T21:48:54.263Z,17.13
2019-01-26T21:54:14.107Z,16.23
2019-01-26T21:59:21.730Z,15.10
2019-01-26T22:04:30.617Z,14.00
2019-01-26T22:09:39.628Z,13.20
2019-01-26T22:14:48.622Z,15.00
2019-01-26T22:19:55.394Z,21.43
2019-01-26T22:25:04.880Z,20.07
2019-01-26T22:30:24.481Z,20.70
2019-01-26T22:35:32.103Z,23.63
2019-01-26T22:40:39.363Z,17.83
2019-01-26T22:45:46.982Z,18.53
2019-01-26T22:50:54.875Z,15.10
2019-01-26T22:56:04.886Z,15.10
2019-01-26T23:01:20.306Z,13.67
2019-01-26T23:06:39.693Z,11.97
2019-01-26T23:12:36.871Z,9.73
2019-01-26T23:18:13.978Z,11.57
2019-01-26T23:23:59.874Z,13.87
2019-01-26T23:29:19.138Z,12.33
2019-01-26T23:34:29.386Z,14.70
2019-01-26T23:39:37.847Z,17.37
2019-01-26T23:44:45.739Z,13.90
2019-01-26T23:49:53.602Z,13.87
2019-01-26T23:54:59.994Z,16.20
